Time;durP1;ratioP1;P1;durP2;ratioP2;P2;SDS_P1;SDS_P2;PMS_P1;PMS_P2;Temp;Humidity;BMP_temperature;BMP_pressure;BME280_temperature;BME280_humidity;BME280_pressure;Samples;Min_cycle;Max_cycle;Signal;HPM_P1;HPM_P2
2022/03/19 00:01:32;;;;;;;1.50;1.30;;;8.50;95.60;;;;;;5012167;28;20459;-72
2022/03/19 00:03:58;;;;;;;1.50;1.30;;;8.40;95.80;;;;;;5028760;28;20559;-72
2022/03/19 00:06:25;;;;;;;1.50;1.20;;;8.40;96.10;;;;;;5022411;28;20511;-72
2022/03/19 00:08:56;;;;;;;1.50;1.20;;;8.40;96.10;;;;;;5015606;28;20464;-72
2022/03/19 00:11:24;;;;;;;1.50;1.20;;;8.40;96.10;;;;;;5007144;28;20523;-72
2022/03/19 00:13:51;;;;;;;1.50;1.30;;;8.40;96.20;;;;;;5009258;28;20848;-72
2022/03/19 00:16:17;;;;;;;1.50;1.20;;;8.30;96.00;;;;;;5008102;28;20623;-72
2022/03/19 00:18:44;;;;;;;1.53;1.30;;;8.30;96.20;;;;;;5008178;28;20472;-73
2022/03/19 00:21:11;;;;;;;1.50;1.20;;;8.30;96.00;;;;;;5004777;28;20563;-72
2022/03/19 00:23:38;;;;;;;1.50;1.20;;;8.30;96.60;;;;;;5014084;28;20839;-72
2022/03/19 00:26:06;;;;;;;1.50;1.30;;;8.20;96.70;;;;;;5016660;28;20492;-72
2022/03/19 00:28:34;;;;;;;1.50;1.20;;;8.20;96.90;;;;;;5007598;28;20464;-73
2022/03/19 00:31:01;;;;;;;1.50;1.20;;;8.10;96.70;;;;;;5004048;28;20850;-72
2022/03/19 00:33:27;;;;;;;1.50;1.20;;;8.10;96.50;;;;;;5009192;28;20853;-72
2022/03/19 00:35:54;;;;;;;2.93;2.73;;;8.10;97.40;;;;;;5007686;28;20468;-72
2022/03/19 00:38:21;;;;;;;1.50;1.20;;;8.00;97.40;;;;;;5008217;28;20464;-72
2022/03/19 00:40:49;;;;;;;1.50;1.30;;;8.00;97.90;;;;;;5006770;28;20634;-72
2022/03/19 00:43:16;;;;;;;1.50;1.37;;;8.00;97.80;;;;;;5008450;28;20471;-72
2022/03/19 00:45:44;;;;;;;1.50;1.20;;;8.00;98.10;;;;;;5010858;28;20869;-72
2022/03/19 00:48:11;;;;;;;1.50;1.20;;;7.90;97.40;;;;;;5012831;28;20576;-72
2022/03/19 00:50:38;;;;;;;1.53;1.30;;;7.90;97.80;;;;;;5010377;28;20460;-73
2022/03/19 00:53:04;;;;;;;1.50;1.20;;;7.90;97.40;;;;;;5009669;28;20476;-72
2022/03/19 00:55:31;;;;;;;1.50;1.30;;;7.80;98.00;;;;;;5012878;28;20462;-72
2022/03/19 00:57:58;;;;;;;1.50;1.27;;;7.80;97.80;;;;;;5010649;28;20906;-72
2022/03/19 01:00:26;;;;;;;1.50;1.20;;;7.70;97.50;;;;;;5010810;28;20464;-73
2022/03/19 01:02:55;;;;;;;1.50;1.20;;;7.60;98.00;;;;;;5012813;28;20475;-72
2022/03/19 01:05:23;;;;;;;1.50;1.30;;;7.60;98.10;;;;;;5012355;28;20522;-72
2022/03/19 01:07:53;;;;;;;1.50;1.20;;;7.60;98.20;;;;;;5011715;28;20487;-72
2022/03/19 01:10:21;;;;;;;1.50;1.20;;;7.50;98.20;;;;;;5010551;28;20483;-73
2022/03/19 01:12:48;;;;;;;1.50;1.30;;;7.50;98.20;;;;;;5011799;28;20468;-72
2022/03/19 01:15:16;;;;;;;1.73;1.63;;;7.50;98.20;;;;;;5012134;28;20464;-72
2022/03/19 01:17:43;;;;;;;1.50;1.30;;;7.50;98.20;;;;;;5011710;28;20516;-73
2022/03/19 01:20:13;;;;;;;1.50;1.37;;;7.50;98.20;;;;;;5010447;28;20464;-72
2022/03/19 01:22:41;;;;;;;1.50;1.40;;;7.40;97.60;;;;;;5011585;28;21015;-72
2022/03/19 01:25:09;;;;;;;1.50;1.23;;;7.30;98.00;;;;;;5011852;28;20464;-73
2022/03/19 01:27:37;;;;;;;1.50;1.30;;;7.20;98.20;;;;;;5011654;28;20487;-72
2022/03/19 01:30:06;;;;;;;1.50;1.20;;;7.20;98.20;;;;;;5007177;28;20466;-72
2022/03/19 01:32:34;;;;;;;1.50;1.20;;;7.10;98.20;;;;;;5005911;28;20456;-73
2022/03/19 01:35:01;;;;;;;1.50;1.20;;;7.10;98.20;;;;;;5006218;28;20460;-73
2022/03/19 01:37:29;;;;;;;1.50;1.20;;;7.10;98.20;;;;;;5010841;28;20487;-72
2022/03/19 01:39:56;;;;;;;1.50;1.30;;;7.00;98.20;;;;;;5009840;28;20831;-72
2022/03/19 01:42:24;;;;;;;1.50;1.30;;;7.00;98.20;;;;;;5005914;28;20963;-73
2022/03/19 01:44:52;;;;;;;1.53;1.20;;;6.90;98.20;;;;;;5011674;28;20464;-72
2022/03/19 01:47:19;;;;;;;1.50;1.20;;;6.90;98.20;;;;;;5010471;28;20523;-72
2022/03/19 01:49:46;;;;;;;1.50;1.20;;;6.80;98.20;;;;;;5010359;28;20999;-72
2022/03/19 01:52:13;;;;;;;1.53;1.20;;;6.70;98.20;;;;;;5011233;28;20467;-72
2022/03/19 01:54:43;;;;;;;1.60;1.40;;;6.70;98.20;;;;;;5011975;28;20464;-72
2022/03/19 01:57:11;;;;;;;1.53;1.30;;;6.60;98.20;;;;;;5008368;28;20555;-73
2022/03/19 01:59:39;;;;;;;1.57;1.30;;;6.50;98.20;;;;;;5006951;28;20465;-74
2022/03/19 02:02:07;;;;;;;1.50;1.20;;;6.40;98.20;;;;;;5010742;28;20456;-73
2022/03/19 02:04:35;;;;;;;1.57;1.30;;;6.40;98.20;;;;;;5011844;28;20467;-73
2022/03/19 02:07:03;;;;;;;1.50;1.40;;;6.30;98.20;;;;;;5009997;28;20507;-73
2022/03/19 02:09:30;;;;;;;1.50;1.30;;;6.20;98.20;;;;;;5009342;28;20494;-74
2022/03/19 02:11:58;;;;;;;1.60;1.40;;;6.20;98.20;;;;;;5010260;28;20473;-74
2022/03/19 02:14:25;;;;;;;1.60;1.50;;;6.20;98.20;;;;;;5011355;28;20464;-74
2022/03/19 02:16:52;;;;;;;1.50;1.30;;;6.10;98.20;;;;;;5008783;28;20499;-74
2022/03/19 02:19:19;;;;;;;1.57;1.30;;;6.00;98.20;;;;;;5009726;28;20551;-74
2022/03/19 02:21:47;;;;;;;1.50;1.30;;;6.00;98.20;;;;;;4999305;28;20522;-74
2022/03/19 02:27:01;;;;;;;3.10;2.80;;;5.90;98.20;;;;;;5002721;28;20495;-74
2022/03/19 02:29:28;;;;;;;1.50;1.30;;;5.80;98.20;;;;;;5006207;28;20468;-74
2022/03/19 02:31:57;;;;;;;1.60;1.40;;;5.80;98.20;;;;;;5010300;28;20464;-74
2022/03/19 02:34:24;;;;;;;1.57;1.30;;;5.80;98.20;;;;;;5010478;28;20488;-73
2022/03/19 02:36:51;;;;;;;1.50;1.30;;;5.70;98.20;;;;;;5006429;28;20514;-73
2022/03/19 02:39:21;;;;;;;1.50;1.30;;;5.60;98.20;;;;;;5012976;28;20468;-75
2022/03/19 02:41:50;;;;;;;1.53;1.30;;;5.60;98.20;;;;;;5009697;28;20475;-74
2022/03/19 02:44:19;;;;;;;1.50;1.30;;;5.60;98.20;;;;;;5010528;28;21000;-73
2022/03/19 02:46:48;;;;;;;1.57;1.30;;;5.50;98.20;;;;;;5009041;28;20483;-74
2022/03/19 02:49:14;;;;;;;1.53;1.40;;;5.50;98.20;;;;;;5007397;28;20456;-73
2022/03/19 02:51:43;;;;;;;1.50;1.30;;;5.50;98.20;;;;;;5006316;28;20463;-73
2022/03/19 02:54:12;;;;;;;1.60;1.50;;;5.40;98.20;;;;;;5028559;28;20474;-73
2022/03/19 02:56:42;;;;;;;1.57;1.40;;;5.40;98.20;;;;;;5009691;28;20483;-73
2022/03/19 02:59:12;;;;;;;1.63;1.53;;;5.30;98.20;;;;;;5015243;28;20460;-73
2022/03/19 03:01:39;;;;;;;1.60;1.50;;;5.30;98.20;;;;;;5008836;28;20471;-73
2022/03/19 03:04:06;;;;;;;1.53;1.30;;;5.30;98.20;;;;;;5010294;28;20467;-73
2022/03/19 03:06:35;;;;;;;1.53;1.30;;;5.20;98.20;;;;;;5008445;28;20510;-73
2022/03/19 03:09:02;;;;;;;1.60;1.30;;;5.20;98.20;;;;;;5008892;28;20526;-74
2022/03/19 03:11:29;;;;;;;1.60;1.33;;;5.20;98.20;;;;;;5007696;28;20464;-73
2022/03/19 03:13:57;;;;;;;1.57;1.40;;;5.10;98.20;;;;;;5010058;28;20464;-73
2022/03/19 03:16:25;;;;;;;1.50;1.30;;;5.10;98.20;;;;;;5008850;28;20491;-72
2022/03/19 03:18:51;;;;;;;1.50;1.30;;;5.10;98.20;;;;;;5008884;28;20471;-73
2022/03/19 03:21:19;;;;;;;1.60;1.37;;;5.00;98.20;;;;;;5008341;28;20487;-73
2022/03/19 03:23:46;;;;;;;1.60;1.40;;;5.00;98.20;;;;;;5009673;28;20740;-73
2022/03/19 03:26:13;;;;;;;1.53;1.30;;;5.00;98.20;;;;;;5008477;28;20486;-72
2022/03/19 03:28:40;;;;;;;1.50;1.30;;;4.90;98.20;;;;;;5009980;28;20468;-73
2022/03/19 03:31:08;;;;;;;1.57;1.30;;;4.90;98.20;;;;;;5004818;28;20930;-73
2022/03/19 03:33:35;;;;;;;1.60;1.30;;;4.90;98.20;;;;;;5010051;28;20495;-73
2022/03/19 03:36:02;;;;;;;1.60;1.40;;;4.80;98.20;;;;;;5009367;28;20471;-73
2022/03/19 03:38:29;;;;;;;1.53;1.30;;;4.80;98.20;;;;;;5009157;28;20526;-73
2022/03/19 03:40:56;;;;;;;1.60;1.40;;;4.80;98.20;;;;;;5007482;28;20464;-73
2022/03/19 03:43:23;;;;;;;1.53;1.30;;;4.80;98.20;;;;;;5010611;28;20849;-72
2022/03/19 03:45:50;;;;;;;1.60;1.50;;;4.80;98.20;;;;;;5008776;28;20463;-72
2022/03/19 03:48:18;;;;;;;1.60;1.43;;;4.70;98.20;;;;;;5008309;28;20492;-73
2022/03/19 03:50:46;;;;;;;1.60;1.40;;;4.70;98.20;;;;;;5007767;28;20464;-73
2022/03/19 03:53:13;;;;;;;1.50;1.40;;;4.70;98.20;;;;;;5009223;28;20467;-73
2022/03/19 03:55:40;;;;;;;1.60;1.47;;;4.70;98.20;;;;;;5008925;28;20475;-73
2022/03/19 03:58:08;;;;;;;1.60;1.40;;;4.60;98.20;;;;;;5008183;28;20465;-73
2022/03/19 04:00:36;;;;;;;1.57;1.40;;;4.60;98.20;;;;;;5006688;28;20848;-72
2022/03/19 04:03:03;;;;;;;1.60;1.40;;;4.60;98.20;;;;;;5009471;28;20547;-72
2022/03/19 04:05:33;;;;;;;1.57;1.40;;;4.60;98.20;;;;;;5008797;28;20474;-73
2022/03/19 04:08:00;;;;;;;1.53;1.30;;;4.50;98.20;;;;;;5005578;28;20496;-73
2022/03/19 04:10:27;;;;;;;1.60;1.40;;;4.50;98.20;;;;;;5000927;28;20475;-73
2022/03/19 04:12:54;;;;;;;1.50;1.30;;;4.50;98.20;;;;;;5006342;28;20460;-73
2022/03/19 04:15:21;;;;;;;1.57;1.37;;;4.50;98.20;;;;;;5028021;28;20473;-73
2022/03/19 04:17:48;;;;;;;1.50;1.30;;;4.50;98.20;;;;;;5007852;28;20483;-73
2022/03/19 04:20:15;;;;;;;1.50;1.30;;;4.50;98.20;;;;;;5007458;28;20471;-72
2022/03/19 04:22:45;;;;;;;1.60;1.50;;;4.40;98.20;;;;;;5002539;28;20969;-73
2022/03/19 04:25:14;;;;;;;1.60;1.40;;;4.40;98.20;;;;;;5004322;28;20670;-72
2022/03/19 04:27:41;;;;;;;1.53;1.40;;;4.40;98.20;;;;;;5016338;28;20566;-73
2022/03/19 04:30:12;;;;;;;1.57;1.30;;;4.40;98.20;;;;;;5010103;28;20468;-73
2022/03/19 04:32:43;;;;;;;1.57;1.37;;;4.30;98.20;;;;;;5015011;28;20469;-73
2022/03/19 04:37:56;;;;;;;1.60;1.40;;;4.30;98.20;;;;;;5010188;28;20616;-73
2022/03/19 04:40:23;;;;;;;1.53;1.40;;;4.30;98.20;;;;;;5006588;28;20844;-73
2022/03/19 04:42:49;;;;;;;1.60;1.40;;;4.20;98.20;;;;;;5009091;28;21135;-73
2022/03/19 04:45:16;;;;;;;1.50;1.40;;;4.20;98.20;;;;;;5005143;28;20468;-74
2022/03/19 04:47:43;;;;;;;1.50;1.40;;;4.20;98.20;;;;;;5006231;28;20494;-74
2022/03/19 04:50:10;;;;;;;1.60;1.40;;;4.20;98.20;;;;;;5005713;28;20471;-73
2022/03/19 04:52:38;;;;;;;1.57;1.40;;;4.20;98.20;;;;;;5003309;28;20527;-73
2022/03/19 04:55:08;;;;;;;1.57;1.30;;;4.20;98.20;;;;;;5007634;28;20468;-73
2022/03/19 04:57:36;;;;;;;1.60;1.40;;;4.20;98.20;;;;;;5007843;28;20479;-73
2022/03/19 05:00:05;;;;;;;1.57;1.40;;;4.20;98.20;;;;;;5003429;28;20456;-74
2022/03/19 05:02:32;;;;;;;1.63;1.53;;;4.10;98.20;;;;;;5007614;28;20956;-71
2022/03/19 05:04:59;;;;;;;1.60;1.50;;;4.10;98.20;;;;;;5007357;28;20539;-74
2022/03/19 05:07:26;;;;;;;1.57;1.40;;;4.10;98.20;;;;;;5005385;28;20758;-74
2022/03/19 05:12:47;;;;;;;1.60;1.30;;;4.10;98.20;;;;;;4979603;28;20589;-75
2022/03/19 05:15:17;;;;;;;1.57;1.40;;;4.10;98.20;;;;;;5008100;28;21117;-74
2022/03/19 05:17:45;;;;;;;1.50;1.30;;;4.10;98.20;;;;;;5003592;28;20479;-72
2022/03/19 05:20:13;;;;;;;1.50;1.40;;;4.10;98.20;;;;;;5006716;28;20464;-74
2022/03/19 05:22:40;;;;;;;1.60;1.30;;;4.10;98.20;;;;;;4992324;28;20457;-72
2022/03/19 05:25:08;;;;;;;1.60;1.40;;;4.10;98.20;;;;;;4988605;28;20465;-74
2022/03/19 05:27:35;;;;;;;1.60;1.40;;;4.10;98.20;;;;;;4995212;28;20492;-73
2022/03/19 05:30:04;;;;;;;1.60;1.50;;;4.10;98.20;;;;;;4987721;28;20468;-74
2022/03/19 05:32:31;;;;;;;1.57;1.40;;;4.10;98.20;;;;;;4990583;28;20476;-73
2022/03/19 05:34:58;;;;;;;1.60;1.43;;;4.10;98.20;;;;;;4992063;28;20468;-72
2022/03/19 05:37:25;;;;;;;1.60;1.40;;;4.10;98.20;;;;;;4991641;28;20488;-74
2022/03/19 05:39:54;;;;;;;1.53;1.40;;;4.10;98.20;;;;;;4991540;28;20465;-74
2022/03/19 05:42:21;;;;;;;1.50;1.30;;;4.10;98.20;;;;;;4991102;28;20464;-74
2022/03/19 05:44:49;;;;;;;1.60;1.40;;;4.00;98.20;;;;;;5005943;28;20605;-75
2022/03/19 05:47:17;;;;;;;1.57;1.30;;;4.00;98.20;;;;;;4998048;28;20496;-72
2022/03/19 05:49:44;;;;;;;1.53;1.40;;;4.00;98.20;;;;;;4989154;28;20480;-74
2022/03/19 05:52:11;;;;;;;1.60;1.40;;;4.00;98.20;;;;;;4991308;28;20460;-74
2022/03/19 05:54:38;;;;;;;1.60;1.40;;;4.00;98.20;;;;;;4991527;28;20469;-74
2022/03/19 05:57:05;;;;;;;1.60;1.40;;;4.00;98.20;;;;;;4996949;28;20487;-74
2022/03/19 05:59:32;;;;;;;1.50;1.40;;;4.00;98.20;;;;;;5001126;28;20550;-74
2022/03/19 06:01:58;;;;;;;1.60;1.40;;;4.00;98.20;;;;;;4989198;28;20518;-74
2022/03/19 06:04:26;;;;;;;1.57;1.40;;;4.00;98.20;;;;;;4998331;28;20460;-73
2022/03/19 06:06:53;;;;;;;1.57;1.40;;;4.00;98.20;;;;;;4991242;28;20493;-72
2022/03/19 06:09:20;;;;;;;1.60;1.40;;;4.10;98.20;;;;;;4989997;28;20545;-73
2022/03/19 06:11:47;;;;;;;1.50;1.40;;;4.10;98.20;;;;;;4990527;28;20457;-73
2022/03/19 06:14:14;;;;;;;1.57;1.30;;;4.10;98.20;;;;;;5005896;28;20991;-74
2022/03/19 06:16:41;;;;;;;1.60;1.40;;;4.10;98.20;;;;;;5003445;28;20489;-72
2022/03/19 06:19:08;;;;;;;1.60;1.40;;;4.10;98.20;;;;;;4991255;28;20984;-73
2022/03/19 06:21:38;;;;;;;1.60;1.40;;;4.20;98.20;;;;;;4989822;28;20487;-72
2022/03/19 06:24:07;;;;;;;1.60;1.50;;;4.20;98.20;;;;;;4991536;28;20472;-75
2022/03/19 06:26:34;;;;;;;1.60;1.30;;;4.30;98.20;;;;;;4990671;28;20759;-74
2022/03/19 06:29:01;;;;;;;1.57;1.43;;;4.40;98.20;;;;;;5003982;28;20494;-73
2022/03/19 06:31:28;;;;;;;1.57;1.40;;;4.60;98.20;;;;;;4993229;28;20471;-74
2022/03/19 06:33:55;;;;;;;1.57;1.30;;;4.80;98.20;;;;;;4990754;28;20469;-71
2022/03/19 06:39:07;;;;;;;1.57;1.30;;;5.20;98.20;;;;;;5018565;28;20444;-70
2022/03/19 06:41:35;;;;;;;1.50;1.30;;;5.40;98.20;;;;;;4997918;28;20484;-71
2022/03/19 06:44:02;;;;;;;1.60;1.40;;;5.60;98.20;;;;;;4999000;28;20492;-71
2022/03/19 06:46:28;;;;;;;1.60;1.43;;;5.90;98.20;;;;;;4989891;28;20504;-73
2022/03/19 06:48:55;;;;;;;1.57;1.30;;;6.10;98.20;;;;;;4990775;28;20495;-73
2022/03/19 06:51:22;;;;;;;1.57;1.30;;;6.40;98.20;;;;;;4989408;28;20469;-73
2022/03/19 06:53:50;;;;;;;1.60;1.37;;;6.60;98.20;;;;;;4991374;28;20519;-73
2022/03/19 06:56:20;;;;;;;1.60;1.30;;;6.80;98.20;;;;;;4992802;28;20461;-74
2022/03/19 06:58:47;;;;;;;1.50;1.30;;;7.00;98.20;;;;;;4996920;28;20487;-75
2022/03/19 07:01:16;;;;;;;1.60;1.40;;;7.30;98.20;;;;;;4988814;28;20473;-72
2022/03/19 07:03:43;;;;;;;1.60;1.30;;;7.50;98.20;;;;;;4991499;28;20488;-73
2022/03/19 07:06:11;;;;;;;1.57;1.30;;;7.70;98.20;;;;;;4990080;28;20488;-72
2022/03/19 07:08:38;;;;;;;1.57;1.30;;;7.90;98.20;;;;;;4991111;28;20492;-75
2022/03/19 07:11:05;;;;;;;1.50;1.20;;;8.20;98.20;;;;;;4989807;28;20535;-73
2022/03/19 07:13:33;;;;;;;1.53;1.30;;;8.40;98.20;;;;;;4991574;28;20480;-75
2022/03/19 07:16:00;;;;;;;1.53;1.20;;;8.60;98.20;;;;;;4989700;28;20473;-73
2022/03/19 07:18:27;;;;;;;1.60;1.30;;;8.80;98.20;;;;;;4988985;28;20461;-72
2022/03/19 07:20:54;;;;;;;1.57;1.20;;;9.00;98.20;;;;;;4989089;28;20465;-75
2022/03/19 07:23:21;;;;;;;1.50;1.20;;;9.20;98.20;;;;;;4990135;28;20475;-73
2022/03/19 07:25:49;;;;;;;1.60;1.43;;;9.40;98.20;;;;;;4990211;28;20487;-76
2022/03/19 07:28:18;;;;;;;1.50;1.20;;;9.60;98.20;;;;;;5003092;28;20574;-74
2022/03/19 07:30:47;;;;;;;1.60;1.30;;;9.70;98.00;;;;;;4992626;28;20468;-71
2022/03/19 07:33:14;;;;;;;1.50;1.20;;;9.90;96.70;;;;;;4989839;28;20496;-72
2022/03/19 07:35:42;;;;;;;1.50;1.10;;;10.10;97.00;;;;;;4990238;28;20469;-75
2022/03/19 07:38:10;;;;;;;1.57;1.20;;;10.20;95.60;;;;;;5000512;28;20486;-71
2022/03/19 07:43:23;;;;;;;1.57;1.20;;;10.60;94.80;;;;;;4995613;28;20971;-73
2022/03/19 07:45:52;;;;;;;1.57;1.10;;;10.70;93.70;;;;;;4992708;28;20472;-72
2022/03/19 07:48:19;;;;;;;1.53;1.20;;;10.90;93.70;;;;;;4988171;28;20930;-71
2022/03/19 07:50:46;;;;;;;1.50;1.10;;;11.00;93.40;;;;;;4987501;28;20466;-71
2022/03/19 07:53:13;;;;;;;1.50;1.00;;;11.10;92.90;;;;;;4988048;28;20461;-71
2022/03/19 07:55:40;;;;;;;1.50;1.10;;;11.20;92.10;;;;;;4987465;28;20995;-72
2022/03/19 07:58:06;;;;;;;1.50;1.10;;;11.40;91.70;;;;;;4988923;28;20477;-73
2022/03/19 08:00:33;;;;;;;1.50;1.07;;;11.40;91.40;;;;;;4986773;28;20465;-72
2022/03/19 08:03:01;;;;;;;1.50;1.10;;;11.60;91.00;;;;;;4987956;28;20745;-73
2022/03/19 08:05:28;;;;;;;1.50;1.10;;;11.80;90.10;;;;;;4992395;28;20564;-72
2022/03/19 08:07:55;;;;;;;1.50;1.00;;;11.90;89.00;;;;;;4987979;28;20489;-72
2022/03/19 08:10:22;;;;;;;1.50;1.10;;;12.00;89.10;;;;;;4985081;28;20476;-74
2022/03/19 08:12:49;;;;;;;1.50;1.00;;;12.00;88.20;;;;;;4987437;28;20552;-72
2022/03/19 08:15:17;;;;;;;1.50;1.13;;;12.10;88.60;;;;;;4987786;28;20468;-73
2022/03/19 08:17:44;;;;;;;1.50;1.10;;;12.30;88.30;;;;;;4992089;28;20591;-72
2022/03/19 08:20:15;;;;;;;1.53;1.10;;;12.40;88.20;;;;;;4986458;28;20465;-75
2022/03/19 08:22:41;;;;;;;1.50;1.00;;;12.60;87.20;;;;;;4986421;28;20511;-72
2022/03/19 08:25:09;;;;;;;1.50;1.00;;;12.70;87.40;;;;;;4988916;28;20821;-72
2022/03/19 08:27:35;;;;;;;1.50;1.00;;;12.80;86.90;;;;;;4993272;28;20484;-73
2022/03/19 08:30:03;;;;;;;1.50;1.10;;;12.80;86.90;;;;;;4991378;28;20469;-72
2022/03/19 08:32:31;;;;;;;1.50;1.00;;;12.90;86.10;;;;;;4988696;28;20472;-72
2022/03/19 08:34:58;;;;;;;1.50;1.00;;;13.00;85.50;;;;;;4988308;28;20473;-72
2022/03/19 08:37:27;;;;;;;1.50;1.00;;;13.10;85.60;;;;;;4992038;28;20647;-73
2022/03/19 08:42:38;;;;;;;1.50;1.00;;;13.40;85.10;;;;;;4987927;28;20651;-73
2022/03/19 08:45:06;;;;;;;1.50;1.00;;;13.50;84.70;;;;;;4988231;28;20985;-73
2022/03/19 08:47:33;;;;;;;1.70;1.30;;;13.70;83.80;;;;;;4986430;28;20876;-73
2022/03/19 08:49:59;;;;;;;1.50;1.00;;;13.80;84.10;;;;;;4986183;28;20465;-72
2022/03/19 08:52:28;;;;;;;1.50;1.00;;;14.00;84.00;;;;;;4989005;28;20463;-73
2022/03/19 08:54:55;;;;;;;1.50;1.00;;;14.20;82.50;;;;;;4986857;28;20891;-73
2022/03/19 08:57:22;;;;;;;1.50;1.00;;;14.30;81.70;;;;;;4979584;28;20515;-73
2022/03/19 08:59:49;;;;;;;1.50;1.00;;;14.40;81.10;;;;;;4980444;28;20464;-72
2022/03/19 09:02:16;;;;;;;1.50;1.10;;;14.50;79.80;;;;;;4984453;28;20802;-73
2022/03/19 09:04:42;;;;;;;1.50;1.00;;;14.50;80.00;;;;;;4981019;28;21292;-72
2022/03/19 09:07:09;;;;;;;1.50;1.07;;;14.60;80.30;;;;;;4987385;28;20484;-73
2022/03/19 09:09:37;;;;;;;1.43;0.90;;;14.80;79.20;;;;;;4987825;28;21161;-73
2022/03/19 09:12:05;;;;;;;1.50;1.00;;;14.70;77.10;;;;;;4987542;28;20511;-72
2022/03/19 09:14:31;;;;;;;1.50;0.90;;;14.70;76.40;;;;;;4991461;28;20515;-71
2022/03/19 09:16:58;;;;;;;1.77;1.43;;;14.60;76.80;;;;;;4985721;28;20503;-73
2022/03/19 09:19:27;;;;;;;1.50;1.00;;;14.60;76.10;;;;;;4986770;28;20492;-71
2022/03/19 09:21:53;;;;;;;1.47;0.90;;;14.70;75.50;;;;;;4987348;28;20551;-73
2022/03/19 09:24:20;;;;;;;1.50;1.00;;;14.80;76.60;;;;;;4989494;28;20932;-72
2022/03/19 09:26:49;;;;;;;1.50;0.90;;;14.90;76.90;;;;;;4987200;28;20493;-72
2022/03/19 09:29:15;;;;;;;1.50;1.00;;;14.90;75.60;;;;;;4986275;28;20492;-74
2022/03/19 09:31:48;;;;;;;1.50;1.00;;;15.00;76.40;;;;;;4987877;28;20480;-73
2022/03/19 09:34:15;;;;;;;1.50;1.00;;;15.10;73.80;;;;;;4986257;28;20473;-72
2022/03/19 09:36:46;;;;;;;1.50;0.90;;;15.20;73.80;;;;;;4986045;28;20500;-73
2022/03/19 09:39:13;;;;;;;1.50;1.00;;;15.30;73.30;;;;;;4987574;28;20468;-72
2022/03/19 09:41:42;;;;;;;1.50;0.93;;;15.30;73.50;;;;;;4986974;28;20523;-73
2022/03/19 09:44:11;;;;;;;1.50;1.10;;;15.20;72.50;;;;;;4994825;28;20456;-73
2022/03/19 09:46:38;;;;;;;1.50;0.90;;;15.10;73.00;;;;;;4990972;28;20576;-71
2022/03/19 09:49:05;;;;;;;1.47;0.90;;;15.10;72.10;;;;;;4999414;28;20501;-72
2022/03/19 09:51:33;;;;;;;1.47;0.93;;;15.10;70.80;;;;;;4989603;28;21004;-71
2022/03/19 09:53:59;;;;;;;1.50;1.00;;;15.20;71.20;;;;;;4989939;28;20461;-72
2022/03/19 09:56:26;;;;;;;1.50;1.00;;;15.40;70.80;;;;;;4986069;28;20495;-73
2022/03/19 09:58:54;;;;;;;1.50;0.90;;;15.40;68.80;;;;;;5004232;28;20692;-72
2022/03/19 10:01:22;;;;;;;1.50;1.00;;;15.20;67.80;;;;;;4991177;28;20497;-73
2022/03/19 10:03:50;;;;;;;1.43;1.00;;;15.30;67.60;;;;;;4991817;28;20469;-73
2022/03/19 10:09:02;;;;;;;1.50;1.10;;;15.40;67.90;;;;;;4990565;28;20639;-73
2022/03/19 10:11:31;;;;;;;1.47;1.00;;;15.60;66.00;;;;;;4990746;28;20606;-71
2022/03/19 10:13:59;;;;;;;1.50;0.90;;;15.60;63.40;;;;;;4988846;28;20980;-71
2022/03/19 10:16:29;;;;;;;1.50;0.90;;;15.60;63.30;;;;;;4984200;28;20805;-72
2022/03/19 10:18:57;;;;;;;1.50;1.00;;;15.80;64.10;;;;;;5000549;28;20464;-72
2022/03/19 10:21:25;;;;;;;1.50;1.00;;;16.00;62.20;;;;;;4991310;28;20461;-71
2022/03/19 10:23:52;;;;;;;1.47;0.90;;;15.90;62.30;;;;;;4991389;28;20461;-71
2022/03/19 10:26:27;;;;;;;1.40;0.90;;;15.70;60.10;;;;;;4991106;28;20976;-71
2022/03/19 10:28:58;;;;;;;1.47;0.90;;;15.90;60.40;;;;;;4981947;28;20867;-71
2022/03/19 10:31:34;;;;;;;1.50;1.00;;;15.90;60.10;;;;;;4989516;28;20467;-73
2022/03/19 10:34:01;;;;;;;1.47;0.90;;;15.90;59.10;;;;;;4990222;28;20472;-72
2022/03/19 10:36:33;;;;;;;1.50;0.90;;;15.90;59.60;;;;;;4990977;28;20491;-73
2022/03/19 10:39:01;;;;;;;1.50;1.00;;;16.10;60.20;;;;;;4990309;28;20516;-72
2022/03/19 10:41:33;;;;;;;1.60;1.30;;;16.40;60.40;;;;;;4990043;28;20960;-72
2022/03/19 10:44:10;;;;;;;1.50;1.00;;;16.60;59.20;;;;;;4995627;28;20976;-72
2022/03/19 10:46:39;;;;;;;1.50;1.00;;;16.60;57.20;;;;;;4990423;28;20488;-72
2022/03/19 10:49:12;;;;;;;1.47;0.90;;;16.50;56.10;;;;;;4990192;28;20997;-72
2022/03/19 10:51:40;;;;;;;1.50;0.90;;;16.30;58.20;;;;;;4986317;28;20507;-70
2022/03/19 10:54:07;;;;;;;1.50;1.00;;;16.50;57.50;;;;;;5005944;28;20573;-72
2022/03/19 10:56:34;;;;;;;1.47;0.90;;;16.50;58.30;;;;;;5002091;28;20886;-72
2022/03/19 10:59:01;;;;;;;1.47;0.90;;;16.70;59.10;;;;;;4988735;28;20465;-73
2022/03/19 11:01:29;;;;;;;1.50;0.90;;;17.00;58.10;;;;;;4984891;28;20468;-73
2022/03/19 11:03:57;;;;;;;1.50;1.00;;;16.90;58.10;;;;;;4990538;28;20461;-72
2022/03/19 11:06:26;;;;;;;1.50;0.90;;;17.20;58.40;;;;;;4988326;28;20496;-72
2022/03/19 11:08:55;;;;;;;1.47;1.00;;;17.20;55.80;;;;;;4989970;28;20493;-71
2022/03/19 11:11:28;;;;;;;1.50;0.90;;;17.00;57.40;;;;;;4989233;28;20826;-71
2022/03/19 11:13:58;;;;;;;1.47;0.90;;;17.00;54.70;;;;;;4989771;28;20493;-71
2022/03/19 11:16:26;;;;;;;1.43;0.90;;;16.80;55.60;;;;;;4988607;28;20484;-72
2022/03/19 11:18:54;;;;;;;1.47;0.90;;;16.90;56.40;;;;;;4989703;28;20489;-74
2022/03/19 11:21:25;;;;;;;1.47;0.90;;;16.90;55.00;;;;;;4981723;28;21000;-72
2022/03/19 11:23:56;;;;;;;2.13;1.23;;;17.10;54.10;;;;;;5002684;28;20954;-72
2022/03/19 11:26:27;;;;;;;1.50;0.97;;;17.00;54.20;;;;;;4988042;28;20495;-70
2022/03/19 11:28:54;;;;;;;1.47;0.90;;;16.90;52.50;;;;;;4988101;28;20871;-73
2022/03/19 11:31:26;;;;;;;1.43;0.90;;;16.80;53.30;;;;;;4987770;28;20465;-71
2022/03/19 11:33:58;;;;;;;1.50;0.90;;;16.90;53.20;;;;;;4988589;28;20958;-73
2022/03/19 11:36:27;;;;;;;1.47;0.90;;;17.10;53.10;;;;;;4983401;28;20492;-72
2022/03/19 11:38:56;;;;;;;1.50;1.00;;;17.10;52.40;;;;;;5000463;28;20680;-72
2022/03/19 11:41:27;;;;;;;1.50;0.97;;;17.20;52.10;;;;;;5029593;23;20530;-76
2022/03/19 11:44:18;;;;;;;1.47;0.90;;;17.20;51.00;;;;;;5023258;28;20947;-74
2022/03/19 11:46:59;;;;;;;1.50;0.90;;;17.10;49.10;;;;;;5020048;28;20540;-74
2022/03/19 11:49:49;;;;;;;1.40;0.90;;;17.10;48.70;;;;;;5026019;28;20491;-73
2022/03/19 11:52:36;;;;;;;1.47;1.00;;;17.00;46.70;;;;;;5027237;28;21299;-74
2022/03/19 11:55:09;;;;;;;1.50;1.00;;;16.90;46.10;;;;;;5027954;28;20479;-76
2022/03/19 11:57:50;;;;;;;1.40;0.90;;;17.10;47.80;;;;;;5026001;28;20460;-73
2022/03/19 12:00:18;;;;;;;1.47;0.90;;;17.30;53.60;;;;;;5022943;28;20479;-74
2022/03/19 12:03:06;;;;;;;1.50;1.00;;;17.30;56.30;;;;;;5027706;28;20951;-75
2022/03/19 12:05:33;;;;;;;1.47;0.90;;;17.60;58.50;;;;;;5027113;28;20459;-76
2022/03/19 12:08:08;;;;;;;1.40;0.90;;;17.60;56.30;;;;;;5028312;28;20566;-74
2022/03/19 12:10:54;;;;;;;1.50;0.90;;;17.50;54.20;;;;;;5025055;28;20487;-74
2022/03/19 12:13:43;;;;;;;1.43;0.90;;;17.60;55.90;;;;;;5024545;28;20504;-73
2022/03/19 12:16:12;;;;;;;1.43;0.90;;;17.60;59.00;;;;;;5041329;28;20915;-74
2022/03/19 12:18:48;;;;;;;1.50;1.23;;;17.50;56.60;;;;;;5031850;28;20469;-75
2022/03/19 12:21:23;;;;;;;1.47;0.90;;;17.50;58.10;;;;;;5037674;28;20477;-75
2022/03/19 12:24:19;;;;;;;1.43;0.90;;;17.30;59.20;;;;;;5034639;28;20467;-75
2022/03/19 12:26:49;;;;;;;1.43;0.90;;;17.30;60.20;;;;;;5038353;28;20963;-75
2022/03/19 12:29:17;;;;;;;1.43;0.90;;;17.40;58.80;;;;;;5038570;28;21028;-76
2022/03/19 12:31:46;;;;;;;1.47;0.90;;;17.60;59.30;;;;;;5028564;28;20486;-75
2022/03/19 12:34:17;;;;;;;1.47;0.93;;;17.50;58.10;;;;;;5029226;28;20462;-72
2022/03/19 12:36:45;;;;;;;1.50;0.90;;;17.70;59.10;;;;;;5032014;28;20924;-74
2022/03/19 12:39:14;;;;;;;1.50;0.90;;;17.70;56.70;;;;;;5029821;28;20455;-75
2022/03/19 12:41:45;;;;;;;1.50;0.93;;;17.50;58.10;;;;;;5020626;28;20889;-74
2022/03/19 12:44:20;;;;;;;1.50;0.90;;;17.40;58.10;;;;;;5034298;28;20469;-74
2022/03/19 12:46:48;;;;;;;1.47;0.90;;;17.30;56.20;;;;;;5031758;28;20508;-72
2022/03/19 12:49:17;;;;;;;1.43;0.90;;;17.10;56.20;;;;;;5027595;28;20621;-73
2022/03/19 12:51:46;;;;;;;1.47;0.90;;;17.10;56.60;;;;;;5026908;28;20487;-73
2022/03/19 12:54:21;;;;;;;1.50;0.93;;;16.90;56.30;;;;;;5028561;28;20524;-73
2022/03/19 12:56:49;;;;;;;1.40;0.90;;;17.00;56.30;;;;;;5030254;28;20887;-73
2022/03/19 12:59:21;;;;;;;1.47;0.90;;;17.00;56.30;;;;;;5029882;28;20999;-75
2022/03/19 13:01:48;;;;;;;1.47;0.90;;;17.10;56.20;;;;;;5028767;28;20716;-75
2022/03/19 13:04:23;;;;;;;1.50;1.00;;;17.00;54.40;;;;;;5030922;28;20853;-74
2022/03/19 13:06:51;;;;;;;1.47;0.90;;;17.00;54.50;;;;;;5028842;28;20816;-75
2022/03/19 13:09:31;;;;;;;1.50;0.90;;;17.10;56.30;;;;;;5033090;28;20644;-74
2022/03/19 13:11:59;;;;;;;1.40;0.90;;;17.10;54.50;;;;;;5033310;28;20482;-74
2022/03/19 13:14:26;;;;;;;1.47;1.00;;;17.00;55.00;;;;;;5030432;28;21046;-74
2022/03/19 13:16:55;;;;;;;1.40;0.90;;;17.00;54.60;;;;;;5031535;28;21069;-75
2022/03/19 13:19:23;;;;;;;1.47;0.90;;;16.80;54.00;;;;;;5028196;28;20473;-73